ENGMENBL

Guest
Details From ENGM - Oslo Gardermoen
To ENBL - BRINGELAND
Flight Number -
Tags generated
Created
Modified
Stats Distance 172 nm / 319 km
Max Altitude 24,500 ft / 7,468 m
Waypoints 4
Social Downloads 1
Likes 0
Share VATSIM

Download

Looking for another format? Having issues loading an existing format? Contact us
Advertisement - Login to hide

Notes

Basic altitude profile: - Ascent Rate: 2500ft/min - Ascent Speed: 120kts - Cruise Altitude: 35000ft - Cruise Speed: 200kts - Descent Rate: 1500ft/min - Descent Speed: 100kts

Route

ENGM GRM UP607 SOMAG ENBL

ID Type Via Altitude Latitude Longitude Leg Dist Tot Dist Heading (true) Name
O ENGM APT - 0 ft / 0 m 60.19451˚ 11.09900˚ - 0 nm - Oslo Gardermoen
GRM VOR - 500 ft / 152 m 60.19176˚ 11.07442˚ 0 nm 0 nm 257° / 257° GARDERMOEN VOR-DME
SOMAG FIX UP607 (AWY-HI) 24,500 ft / 7,468 m 61.05972˚ 7.50000˚ 117 nm 118 nm 298° / 295° -
O ENBL APT - 0 ft / 0 m 61.39182˚ 5.76133˚ 54 nm 172 nm 292° / 291° BRINGELAND

Altitude Profile

Advertisement - Login to hide

Weather


0- 5 10 15 20 25 30 35+ Temperature / ° C

Clouds and Precipitation
Forecast for 2017-12-12 18:00 UTC. Updated an hour ago

Ground ~20,000 ft ~40,000 ft Winds

ENGM

Details ICAO ENGM (OSL)
Name Oslo Gardermoen
Region Norway
Timezone Europe/Oslo (UTC+1.0)
Stats Elevation 681 ft / 208 m (AMSL)
Location 60.194507° 11.098998°
Runways 2
Magnetic Variation 3.384° E

METAR

ENGM 121550Z 34005KT 300V020 CAVOK M08/M12 Q0995 NOSIG

Decode

TAF

TAF ENGM 121100Z 1212/1312 35005KT CAVOK

Decode

Departure Runways

ID Width Length Bearing (true) Bearing (mag) Surface Threshold Offset Overrun Length
01L 148 ft / 45 m 12,144 ft / 3,702 m 15.89° 12.51° Concrete 0 ft / 0 m 499 ft / 152 m
01R 148 ft / 45 m 10,014 ft / 3,052 m 15.89° 12.51° Concrete 0 ft / 0 m 499 ft / 152 m
19L 148 ft / 45 m 10,014 ft / 3,052 m 195.91° 192.53° Concrete 0 ft / 0 m 466 ft / 142 m
19R 148 ft / 45 m 12,144 ft / 3,702 m 195.91° 192.53° Concrete 0 ft / 0 m 482 ft / 147 m

ENBL

Details ICAO ENBL
Name BRINGELAND
Region Norway
Timezone Europe/Oslo (UTC+1.0)
Stats Elevation 1,046 ft / 319 m (AMSL)
Location 61.391815° 5.761330°
Runways 1
Magnetic Variation 1.035° E

METAR

ENBL 121550Z 31004KT CAVOK M08/M10 Q0995

Decode

TAF

Not found

Destination Runways

ID Width Length Bearing (true) Bearing (mag) Surface Threshold Offset Overrun Length
07 98 ft / 30 m 3,107 ft / 947 m 73.80° 72.77° Asphalt 98 ft / 30 m 207 ft / 63 m
25 98 ft / 30 m 3,107 ft / 947 m 253.81° 252.78° Asphalt 148 ft / 45 m 66 ft / 20 m

Approach Navaids

Runway Type Ident Frequency Range Bearing (true) Bearing (mag) Slope Elevation
07 Localiser BL 110.70 MHz 50 nm / 93 km 75.00° 73.97° - 1,091 ft / 333 m (AMSL)
07 DME BL 110.70 MHz 50 nm / 93 km - - - 1,091 ft / 333 m (AMSL)
25 Localiser FD 109.35 MHz 50 nm / 93 km 250.00° 248.97° - 1,054 ft / 321 m (AMSL)
25 DME FD 109.35 MHz 50 nm / 93 km - - - 1,054 ft / 321 m (AMSL)

Popular Alternatives